sensor_id;sensor_type;location;lat;lon;timestamp;P1;durP1;ratioP1;P2;durP2;ratioP2
7835;SDS011;3963;42.658;23.298;2023-03-03T00:00:04;5.43;;;3.80;;
7835;SDS011;3963;42.658;23.298;2023-03-03T00:02:32;4.93;;;3.70;;
7835;SDS011;3963;42.658;23.298;2023-03-03T00:04:59;5.60;;;3.90;;
7835;SDS011;3963;42.658;23.298;2023-03-03T00:07:27;5.87;;;3.50;;
7835;SDS011;3963;42.658;23.298;2023-03-03T00:09:53;7.00;;;3.90;;
7835;SDS011;3963;42.658;23.298;2023-03-03T00:12:22;5.97;;;4.30;;
7835;SDS011;3963;42.658;23.298;2023-03-03T00:14:50;5.40;;;4.03;;
7835;SDS011;3963;42.658;23.298;2023-03-03T00:17:20;5.00;;;4.00;;
7835;SDS011;3963;42.658;23.298;2023-03-03T00:19:48;6.07;;;4.30;;
7835;SDS011;3963;42.658;23.298;2023-03-03T00:22:24;5.87;;;4.13;;
7835;SDS011;3963;42.658;23.298;2023-03-03T00:24:57;5.80;;;3.97;;
7835;SDS011;3963;42.658;23.298;2023-03-03T00:27:27;6.30;;;4.50;;
7835;SDS011;3963;42.658;23.298;2023-03-03T00:29:56;6.27;;;4.57;;
7835;SDS011;3963;42.658;23.298;2023-03-03T00:32:24;6.47;;;4.77;;
7835;SDS011;3963;42.658;23.298;2023-03-03T00:34:54;5.90;;;4.27;;
7835;SDS011;3963;42.658;23.298;2023-03-03T00:37:22;6.10;;;3.90;;
7835;SDS011;3963;42.658;23.298;2023-03-03T00:39:54;8.07;;;5.00;;
7835;SDS011;3963;42.658;23.298;2023-03-03T00:42:25;5.33;;;4.50;;
7835;SDS011;3963;42.658;23.298;2023-03-03T00:44:55;5.83;;;4.70;;
7835;SDS011;3963;42.658;23.298;2023-03-03T00:47:24;6.00;;;4.63;;
7835;SDS011;3963;42.658;23.298;2023-03-03T00:49:55;6.40;;;4.83;;
7835;SDS011;3963;42.658;23.298;2023-03-03T00:52:53;6.93;;;4.80;;
7835;SDS011;3963;42.658;23.298;2023-03-03T00:55:26;6.27;;;4.90;;
7835;SDS011;3963;42.658;23.298;2023-03-03T00:57:53;6.93;;;5.20;;
7835;SDS011;3963;42.658;23.298;2023-03-03T01:00:20;7.87;;;5.80;;
7835;SDS011;3963;42.658;23.298;2023-03-03T01:02:47;6.93;;;4.73;;
7835;SDS011;3963;42.658;23.298;2023-03-03T01:05:15;5.73;;;4.53;;
7835;SDS011;3963;42.658;23.298;2023-03-03T01:07:43;7.63;;;5.93;;
7835;SDS011;3963;42.658;23.298;2023-03-03T01:10:10;7.03;;;5.17;;
7835;SDS011;3963;42.658;23.298;2023-03-03T01:12:39;7.63;;;4.90;;
7835;SDS011;3963;42.658;23.298;2023-03-03T01:15:07;6.17;;;4.83;;
7835;SDS011;3963;42.658;23.298;2023-03-03T01:17:36;7.93;;;5.57;;
7835;SDS011;3963;42.658;23.298;2023-03-03T01:20:04;7.53;;;5.17;;
7835;SDS011;3963;42.658;23.298;2023-03-03T01:22:32;7.13;;;5.03;;
7835;SDS011;3963;42.658;23.298;2023-03-03T01:24:59;7.33;;;5.57;;
7835;SDS011;3963;42.658;23.298;2023-03-03T01:27:27;7.07;;;5.23;;
7835;SDS011;3963;42.658;23.298;2023-03-03T01:29:55;6.63;;;4.90;;
7835;SDS011;3963;42.658;23.298;2023-03-03T01:32:22;6.70;;;5.10;;
7835;SDS011;3963;42.658;23.298;2023-03-03T01:34:49;7.53;;;5.30;;
7835;SDS011;3963;42.658;23.298;2023-03-03T01:37:16;9.87;;;5.17;;
7835;SDS011;3963;42.658;23.298;2023-03-03T01:39:46;8.33;;;5.20;;
7835;SDS011;3963;42.658;23.298;2023-03-03T01:42:14;8.07;;;5.93;;
7835;SDS011;3963;42.658;23.298;2023-03-03T01:44:41;6.77;;;5.23;;
7835;SDS011;3963;42.658;23.298;2023-03-03T01:47:09;7.57;;;5.20;;
7835;SDS011;3963;42.658;23.298;2023-03-03T01:49:39;5.40;;;4.80;;
7835;SDS011;3963;42.658;23.298;2023-03-03T01:52:14;7.43;;;4.73;;
7835;SDS011;3963;42.658;23.298;2023-03-03T01:54:49;7.27;;;5.03;;
7835;SDS011;3963;42.658;23.298;2023-03-03T01:57:18;8.57;;;5.27;;
7835;SDS011;3963;42.658;23.298;2023-03-03T01:59:50;7.13;;;4.97;;
7835;SDS011;3963;42.658;23.298;2023-03-03T02:02:20;6.90;;;5.10;;
7835;SDS011;3963;42.658;23.298;2023-03-03T02:04:48;7.97;;;5.13;;
7835;SDS011;3963;42.658;23.298;2023-03-03T02:07:15;8.03;;;5.00;;
7835;SDS011;3963;42.658;23.298;2023-03-03T02:09:49;6.70;;;4.80;;
7835;SDS011;3963;42.658;23.298;2023-03-03T02:12:21;5.57;;;4.37;;
7835;SDS011;3963;42.658;23.298;2023-03-03T02:14:52;7.00;;;5.00;;
7835;SDS011;3963;42.658;23.298;2023-03-03T02:17:21;8.03;;;5.13;;
7835;SDS011;3963;42.658;23.298;2023-03-03T02:19:50;7.00;;;5.23;;
7835;SDS011;3963;42.658;23.298;2023-03-03T02:22:20;6.80;;;4.60;;
7835;SDS011;3963;42.658;23.298;2023-03-03T02:24:53;7.43;;;4.53;;
7835;SDS011;3963;42.658;23.298;2023-03-03T02:27:26;6.60;;;5.00;;
7835;SDS011;3963;42.658;23.298;2023-03-03T02:29:56;9.43;;;5.33;;
7835;SDS011;3963;42.658;23.298;2023-03-03T02:32:23;9.47;;;5.53;;
7835;SDS011;3963;42.658;23.298;2023-03-03T02:34:50;8.50;;;4.63;;
7835;SDS011;3963;42.658;23.298;2023-03-03T02:37:18;6.80;;;4.57;;
7835;SDS011;3963;42.658;23.298;2023-03-03T02:39:45;7.57;;;5.50;;
7835;SDS011;3963;42.658;23.298;2023-03-03T02:42:13;7.70;;;4.93;;
7835;SDS011;3963;42.658;23.298;2023-03-03T02:44:45;9.83;;;5.20;;
7835;SDS011;3963;42.658;23.298;2023-03-03T02:47:12;6.30;;;4.57;;
7835;SDS011;3963;42.658;23.298;2023-03-03T02:49:39;7.13;;;4.90;;
7835;SDS011;3963;42.658;23.298;2023-03-03T02:52:07;6.57;;;4.90;;
7835;SDS011;3963;42.658;23.298;2023-03-03T02:54:35;7.33;;;5.10;;
7835;SDS011;3963;42.658;23.298;2023-03-03T02:57:03;6.93;;;4.83;;
7835;SDS011;3963;42.658;23.298;2023-03-03T02:59:30;8.37;;;5.00;;
7835;SDS011;3963;42.658;23.298;2023-03-03T03:01:58;7.70;;;5.33;;
7835;SDS011;3963;42.658;23.298;2023-03-03T03:04:26;9.13;;;5.73;;
7835;SDS011;3963;42.658;23.298;2023-03-03T03:06:53;9.67;;;5.40;;
7835;SDS011;3963;42.658;23.298;2023-03-03T03:09:21;7.63;;;5.57;;
7835;SDS011;3963;42.658;23.298;2023-03-03T03:11:49;9.40;;;5.50;;
7835;SDS011;3963;42.658;23.298;2023-03-03T03:14:17;6.90;;;4.83;;
7835;SDS011;3963;42.658;23.298;2023-03-03T03:16:44;7.53;;;5.40;;
7835;SDS011;3963;42.658;23.298;2023-03-03T03:19:12;8.93;;;6.10;;
7835;SDS011;3963;42.658;23.298;2023-03-03T03:21:39;9.20;;;6.77;;
7835;SDS011;3963;42.658;23.298;2023-03-03T03:24:06;10.03;;;6.50;;
7835;SDS011;3963;42.658;23.298;2023-03-03T03:26:33;10.63;;;6.37;;
7835;SDS011;3963;42.658;23.298;2023-03-03T03:29:00;9.50;;;6.63;;
7835;SDS011;3963;42.658;23.298;2023-03-03T03:31:26;11.73;;;7.10;;
7835;SDS011;3963;42.658;23.298;2023-03-03T03:33:53;8.43;;;6.63;;
7835;SDS011;3963;42.658;23.298;2023-03-03T03:36:21;10.97;;;7.27;;
7835;SDS011;3963;42.658;23.298;2023-03-03T03:38:48;10.87;;;7.83;;
7835;SDS011;3963;42.658;23.298;2023-03-03T03:41:15;11.63;;;7.37;;
7835;SDS011;3963;42.658;23.298;2023-03-03T03:43:42;11.77;;;6.70;;
7835;SDS011;3963;42.658;23.298;2023-03-03T03:46:09;11.90;;;7.13;;
7835;SDS011;3963;42.658;23.298;2023-03-03T03:48:35;11.33;;;7.67;;
7835;SDS011;3963;42.658;23.298;2023-03-03T03:51:02;11.27;;;6.90;;
7835;SDS011;3963;42.658;23.298;2023-03-03T03:53:31;13.00;;;7.73;;
7835;SDS011;3963;42.658;23.298;2023-03-03T03:55:58;10.57;;;7.50;;
7835;SDS011;3963;42.658;23.298;2023-03-03T03:58:25;13.27;;;7.90;;
7835;SDS011;3963;42.658;23.298;2023-03-03T04:00:51;12.07;;;8.10;;
7835;SDS011;3963;42.658;23.298;2023-03-03T04:03:18;13.33;;;8.30;;
7835;SDS011;3963;42.658;23.298;2023-03-03T04:05:45;12.30;;;7.60;;
7835;SDS011;3963;42.658;23.298;2023-03-03T04:08:12;12.23;;;8.27;;
7835;SDS011;3963;42.658;23.298;2023-03-03T04:10:40;12.47;;;7.87;;
7835;SDS011;3963;42.658;23.298;2023-03-03T04:13:07;12.73;;;8.20;;
7835;SDS011;3963;42.658;23.298;2023-03-03T04:15:34;11.40;;;7.90;;
7835;SDS011;3963;42.658;23.298;2023-03-03T04:18:01;13.37;;;8.23;;
7835;SDS011;3963;42.658;23.298;2023-03-03T04:20:29;12.83;;;8.40;;
7835;SDS011;3963;42.658;23.298;2023-03-03T04:22:56;13.23;;;8.63;;
7835;SDS011;3963;42.658;23.298;2023-03-03T04:25:23;15.53;;;9.10;;
7835;SDS011;3963;42.658;23.298;2023-03-03T04:27:52;13.00;;;8.73;;
7835;SDS011;3963;42.658;23.298;2023-03-03T04:30:18;12.47;;;7.73;;
7835;SDS011;3963;42.658;23.298;2023-03-03T04:32:45;13.70;;;8.83;;
7835;SDS011;3963;42.658;23.298;2023-03-03T04:35:13;14.50;;;9.07;;
7835;SDS011;3963;42.658;23.298;2023-03-03T04:37:40;14.30;;;8.70;;
7835;SDS011;3963;42.658;23.298;2023-03-03T04:40:07;13.07;;;8.60;;
7835;SDS011;3963;42.658;23.298;2023-03-03T04:42:35;11.77;;;8.20;;
7835;SDS011;3963;42.658;23.298;2023-03-03T04:45:03;13.43;;;8.10;;
7835;SDS011;3963;42.658;23.298;2023-03-03T04:47:31;12.77;;;8.70;;
7835;SDS011;3963;42.658;23.298;2023-03-03T04:49:58;11.93;;;8.43;;
7835;SDS011;3963;42.658;23.298;2023-03-03T04:52:25;11.80;;;7.80;;
7835;SDS011;3963;42.658;23.298;2023-03-03T04:54:51;11.70;;;8.30;;
7835;SDS011;3963;42.658;23.298;2023-03-03T04:57:18;14.37;;;8.87;;
7835;SDS011;3963;42.658;23.298;2023-03-03T04:59:45;14.13;;;9.37;;
7835;SDS011;3963;42.658;23.298;2023-03-03T05:02:13;15.53;;;9.43;;
7835;SDS011;3963;42.658;23.298;2023-03-03T05:04:40;13.00;;;8.30;;
7835;SDS011;3963;42.658;23.298;2023-03-03T05:07:07;12.97;;;8.63;;
7835;SDS011;3963;42.658;23.298;2023-03-03T05:09:34;12.67;;;8.10;;
7835;SDS011;3963;42.658;23.298;2023-03-03T05:12:01;13.20;;;8.13;;
7835;SDS011;3963;42.658;23.298;2023-03-03T05:14:27;14.47;;;8.97;;
7835;SDS011;3963;42.658;23.298;2023-03-03T05:16:55;15.30;;;8.97;;
7835;SDS011;3963;42.658;23.298;2023-03-03T05:19:23;13.27;;;8.77;;
7835;SDS011;3963;42.658;23.298;2023-03-03T05:21:50;15.73;;;9.03;;
7835;SDS011;3963;42.658;23.298;2023-03-03T05:24:17;12.13;;;8.67;;
7835;SDS011;3963;42.658;23.298;2023-03-03T05:26:43;15.10;;;8.83;;
7835;SDS011;3963;42.658;23.298;2023-03-03T05:29:10;16.97;;;9.27;;
7835;SDS011;3963;42.658;23.298;2023-03-03T05:31:37;15.83;;;9.50;;
7835;SDS011;3963;42.658;23.298;2023-03-03T05:34:04;16.70;;;10.10;;
7835;SDS011;3963;42.658;23.298;2023-03-03T05:36:32;17.63;;;9.43;;
7835;SDS011;3963;42.658;23.298;2023-03-03T05:38:59;17.37;;;11.07;;
7835;SDS011;3963;42.658;23.298;2023-03-03T05:41:26;17.23;;;10.17;;
7835;SDS011;3963;42.658;23.298;2023-03-03T05:43:53;14.53;;;9.23;;
7835;SDS011;3963;42.658;23.298;2023-03-03T05:46:19;15.47;;;10.33;;
7835;SDS011;3963;42.658;23.298;2023-03-03T05:48:46;19.97;;;9.60;;
7835;SDS011;3963;42.658;23.298;2023-03-03T05:51:13;14.87;;;8.93;;
7835;SDS011;3963;42.658;23.298;2023-03-03T05:53:41;13.07;;;8.30;;
7835;SDS011;3963;42.658;23.298;2023-03-03T05:56:08;15.60;;;9.17;;
7835;SDS011;3963;42.658;23.298;2023-03-03T05:58:35;15.00;;;8.83;;
7835;SDS011;3963;42.658;23.298;2023-03-03T06:01:01;17.07;;;9.77;;
7835;SDS011;3963;42.658;23.298;2023-03-03T06:03:28;16.07;;;10.17;;
7835;SDS011;3963;42.658;23.298;2023-03-03T06:05:55;16.10;;;9.27;;
7835;SDS011;3963;42.658;23.298;2023-03-03T06:08:23;15.67;;;8.47;;
7835;SDS011;3963;42.658;23.298;2023-03-03T06:10:51;16.00;;;8.97;;
7835;SDS011;3963;42.658;23.298;2023-03-03T06:13:18;14.43;;;8.30;;
7835;SDS011;3963;42.658;23.298;2023-03-03T06:15:44;17.07;;;8.77;;
7835;SDS011;3963;42.658;23.298;2023-03-03T06:18:11;16.77;;;9.60;;
7835;SDS011;3963;42.658;23.298;2023-03-03T06:20:38;15.20;;;9.23;;
7835;SDS011;3963;42.658;23.298;2023-03-03T06:23:05;18.13;;;9.33;;
7835;SDS011;3963;42.658;23.298;2023-03-03T06:25:31;18.30;;;10.40;;
7835;SDS011;3963;42.658;23.298;2023-03-03T06:28:01;18.23;;;10.57;;
7835;SDS011;3963;42.658;23.298;2023-03-03T06:30:28;21.30;;;11.13;;
7835;SDS011;3963;42.658;23.298;2023-03-03T06:32:55;18.27;;;10.50;;
7835;SDS011;3963;42.658;23.298;2023-03-03T06:35:22;21.00;;;11.70;;
7835;SDS011;3963;42.658;23.298;2023-03-03T06:37:49;21.47;;;11.63;;
7835;SDS011;3963;42.658;23.298;2023-03-03T06:40:16;20.83;;;11.13;;
7835;SDS011;3963;42.658;23.298;2023-03-03T06:42:43;18.00;;;10.53;;
7835;SDS011;3963;42.658;23.298;2023-03-03T06:45:12;15.50;;;8.80;;
7835;SDS011;3963;42.658;23.298;2023-03-03T06:47:39;20.40;;;10.07;;
7835;SDS011;3963;42.658;23.298;2023-03-03T06:50:06;17.33;;;10.27;;
7835;SDS011;3963;42.658;23.298;2023-03-03T06:52:35;18.40;;;10.77;;
7835;SDS011;3963;42.658;23.298;2023-03-03T06:55:09;17.57;;;10.20;;
7835;SDS011;3963;42.658;23.298;2023-03-03T06:57:38;17.23;;;9.30;;
7835;SDS011;3963;42.658;23.298;2023-03-03T07:00:13;16.60;;;9.97;;
7835;SDS011;3963;42.658;23.298;2023-03-03T07:02:42;20.00;;;10.90;;
7835;SDS011;3963;42.658;23.298;2023-03-03T07:05:10;16.87;;;10.43;;
7835;SDS011;3963;42.658;23.298;2023-03-03T07:07:40;15.50;;;8.80;;
7835;SDS011;3963;42.658;23.298;2023-03-03T07:10:12;19.90;;;11.40;;
7835;SDS011;3963;42.658;23.298;2023-03-03T07:12:45;14.77;;;9.60;;
7835;SDS011;3963;42.658;23.298;2023-03-03T07:15:16;13.57;;;8.80;;
7835;SDS011;3963;42.658;23.298;2023-03-03T07:17:46;24.77;;;13.73;;
7835;SDS011;3963;42.658;23.298;2023-03-03T07:20:16;15.23;;;9.97;;
7835;SDS011;3963;42.658;23.298;2023-03-03T07:22:45;15.43;;;9.43;;
7835;SDS011;3963;42.658;23.298;2023-03-03T07:25:18;15.60;;;9.90;;
7835;SDS011;3963;42.658;23.298;2023-03-03T07:27:46;17.20;;;9.80;;
7835;SDS011;3963;42.658;23.298;2023-03-03T07:30:21;16.57;;;9.53;;
7835;SDS011;3963;42.658;23.298;2023-03-03T07:32:51;15.33;;;9.57;;
7835;SDS011;3963;42.658;23.298;2023-03-03T07:35:27;15.13;;;8.80;;
7835;SDS011;3963;42.658;23.298;2023-03-03T07:38:00;15.03;;;9.37;;
7835;SDS011;3963;42.658;23.298;2023-03-03T07:40:30;13.43;;;9.20;;
7835;SDS011;3963;42.658;23.298;2023-03-03T07:43:12;11.80;;;7.77;;
7835;SDS011;3963;42.658;23.298;2023-03-03T07:45:54;11.80;;;8.50;;
7835;SDS011;3963;42.658;23.298;2023-03-03T07:48:29;14.33;;;8.87;;
7835;SDS011;3963;42.658;23.298;2023-03-03T07:51:02;16.13;;;9.17;;
7835;SDS011;3963;42.658;23.298;2023-03-03T07:53:33;14.77;;;9.23;;
7835;SDS011;3963;42.658;23.298;2023-03-03T07:56:02;14.77;;;9.40;;
7835;SDS011;3963;42.658;23.298;2023-03-03T07:58:40;15.90;;;9.77;;
7835;SDS011;3963;42.658;23.298;2023-03-03T08:01:23;12.60;;;8.07;;
7835;SDS011;3963;42.658;23.298;2023-03-03T08:03:57;14.50;;;7.67;;
7835;SDS011;3963;42.658;23.298;2023-03-03T08:06:38;11.07;;;8.17;;
7835;SDS011;3963;42.658;23.298;2023-03-03T08:09:23;12.63;;;8.43;;
7835;SDS011;3963;42.658;23.298;2023-03-03T08:12:13;15.50;;;9.77;;
7835;SDS011;3963;42.658;23.298;2023-03-03T08:15:09;16.00;;;9.67;;
7835;SDS011;3963;42.658;23.298;2023-03-03T08:17:43;13.00;;;9.37;;
7835;SDS011;3963;42.658;23.298;2023-03-03T08:23:16;13.67;;;9.40;;
7835;SDS011;3963;42.658;23.298;2023-03-03T08:25:44;14.83;;;9.87;;
7835;SDS011;3963;42.658;23.298;2023-03-03T08:28:11;16.77;;;10.03;;
7835;SDS011;3963;42.658;23.298;2023-03-03T08:30:39;18.00;;;10.10;;
7835;SDS011;3963;42.658;23.298;2023-03-03T08:33:08;15.47;;;9.80;;
7835;SDS011;3963;42.658;23.298;2023-03-03T08:35:34;15.27;;;9.47;;
7835;SDS011;3963;42.658;23.298;2023-03-03T08:38:01;15.23;;;9.60;;
7835;SDS011;3963;42.658;23.298;2023-03-03T08:40:30;16.83;;;10.40;;
7835;SDS011;3963;42.658;23.298;2023-03-03T08:42:57;15.33;;;9.93;;
7835;SDS011;3963;42.658;23.298;2023-03-03T08:45:24;15.13;;;10.90;;
7835;SDS011;3963;42.658;23.298;2023-03-03T08:47:51;14.83;;;9.87;;
7835;SDS011;3963;42.658;23.298;2023-03-03T08:50:21;19.00;;;9.33;;
7835;SDS011;3963;42.658;23.298;2023-03-03T08:52:48;13.63;;;8.27;;
7835;SDS011;3963;42.658;23.298;2023-03-03T08:55:15;14.53;;;9.50;;
7835;SDS011;3963;42.658;23.298;2023-03-03T08:57:42;15.63;;;10.10;;
7835;SDS011;3963;42.658;23.298;2023-03-03T09:00:09;24.03;;;12.77;;
7835;SDS011;3963;42.658;23.298;2023-03-03T09:02:39;15.77;;;10.53;;
7835;SDS011;3963;42.658;23.298;2023-03-03T09:05:06;18.50;;;10.93;;
7835;SDS011;3963;42.658;23.298;2023-03-03T09:07:35;19.10;;;11.63;;
7835;SDS011;3963;42.658;23.298;2023-03-03T09:10:02;19.40;;;11.83;;
7835;SDS011;3963;42.658;23.298;2023-03-03T09:12:32;18.43;;;11.20;;
7835;SDS011;3963;42.658;23.298;2023-03-03T09:15:05;18.60;;;11.33;;
7835;SDS011;3963;42.658;23.298;2023-03-03T09:17:38;18.50;;;11.40;;
7835;SDS011;3963;42.658;23.298;2023-03-03T09:20:14;18.17;;;11.20;;
7835;SDS011;3963;42.658;23.298;2023-03-03T09:22:49;19.07;;;10.57;;
7835;SDS011;3963;42.658;23.298;2023-03-03T09:25:18;19.53;;;11.50;;
7835;SDS011;3963;42.658;23.298;2023-03-03T09:27:51;19.90;;;12.03;;
7835;SDS011;3963;42.658;23.298;2023-03-03T09:30:32;21.00;;;11.93;;
7835;SDS011;3963;42.658;23.298;2023-03-03T09:33:16;20.20;;;12.27;;
7835;SDS011;3963;42.658;23.298;2023-03-03T09:35:51;22.03;;;12.07;;
7835;SDS011;3963;42.658;23.298;2023-03-03T09:38:27;19.30;;;12.00;;
7835;SDS011;3963;42.658;23.298;2023-03-03T09:41:08;20.13;;;11.47;;
7835;SDS011;3963;42.658;23.298;2023-03-03T09:44:00;16.93;;;10.70;;
7835;SDS011;3963;42.658;23.298;2023-03-03T09:46:43;19.13;;;11.07;;
7835;SDS011;3963;42.658;23.298;2023-03-03T09:49:18;18.00;;;11.17;;
7835;SDS011;3963;42.658;23.298;2023-03-03T09:51:57;21.63;;;12.27;;
7835;SDS011;3963;42.658;23.298;2023-03-03T09:54:45;21.03;;;12.83;;
7835;SDS011;3963;42.658;23.298;2023-03-03T09:57:19;20.40;;;11.13;;
7835;SDS011;3963;42.658;23.298;2023-03-03T10:00:02;19.63;;;11.47;;
7835;SDS011;3963;42.658;23.298;2023-03-03T10:02:49;19.93;;;10.70;;
7835;SDS011;3963;42.658;23.298;2023-03-03T10:05:30;16.40;;;10.40;;
7835;SDS011;3963;42.658;23.298;2023-03-03T10:08:10;14.90;;;10.27;;
7835;SDS011;3963;42.658;23.298;2023-03-03T10:10:56;18.30;;;10.63;;
7835;SDS011;3963;42.658;23.298;2023-03-03T10:13:38;20.67;;;12.47;;
7835;SDS011;3963;42.658;23.298;2023-03-03T10:16:32;17.90;;;11.70;;
7835;SDS011;3963;42.658;23.298;2023-03-03T10:19:14;22.93;;;12.50;;
7835;SDS011;3963;42.658;23.298;2023-03-03T10:22:00;18.07;;;11.77;;
7835;SDS011;3963;42.658;23.298;2023-03-03T10:24:46;17.73;;;11.67;;
7835;SDS011;3963;42.658;23.298;2023-03-03T10:27:29;14.67;;;10.43;;
7835;SDS011;3963;42.658;23.298;2023-03-03T10:30:10;14.97;;;9.10;;
7835;SDS011;3963;42.658;23.298;2023-03-03T10:32:45;12.40;;;8.30;;
7835;SDS011;3963;42.658;23.298;2023-03-03T10:35:23;13.87;;;9.27;;
7835;SDS011;3963;42.658;23.298;2023-03-03T10:38:16;13.63;;;9.77;;
7835;SDS011;3963;42.658;23.298;2023-03-03T10:40:55;13.50;;;9.57;;
7835;SDS011;3963;42.658;23.298;2023-03-03T10:43:34;15.20;;;10.80;;
7835;SDS011;3963;42.658;23.298;2023-03-03T10:46:24;20.03;;;11.73;;
7835;SDS011;3963;42.658;23.298;2023-03-03T10:49:26;17.27;;;11.43;;
7835;SDS011;3963;42.658;23.298;2023-03-03T10:52:10;17.60;;;11.73;;
7835;SDS011;3963;42.658;23.298;2023-03-03T10:54:54;15.60;;;11.47;;
7835;SDS011;3963;42.658;23.298;2023-03-03T10:57:31;16.27;;;11.77;;
7835;SDS011;3963;42.658;23.298;2023-03-03T11:00:13;18.23;;;11.87;;
7835;SDS011;3963;42.658;23.298;2023-03-03T11:02:49;16.13;;;11.23;;
7835;SDS011;3963;42.658;23.298;2023-03-03T11:05:37;18.17;;;11.73;;
7835;SDS011;3963;42.658;23.298;2023-03-03T11:08:08;19.37;;;11.53;;
7835;SDS011;3963;42.658;23.298;2023-03-03T11:10:50;19.50;;;12.73;;
7835;SDS011;3963;42.658;23.298;2023-03-03T11:13:23;21.67;;;13.43;;
7835;SDS011;3963;42.658;23.298;2023-03-03T11:22:24;21.67;;;13.67;;
7835;SDS011;3963;42.658;23.298;2023-03-03T11:25:02;29.57;;;18.80;;
7835;SDS011;3963;42.658;23.298;2023-03-03T11:27:45;27.60;;;17.43;;
7835;SDS011;3963;42.658;23.298;2023-03-03T11:30:28;22.97;;;16.23;;
7835;SDS011;3963;42.658;23.298;2023-03-03T11:33:01;22.90;;;14.97;;
7835;SDS011;3963;42.658;23.298;2023-03-03T11:35:34;24.47;;;16.03;;
7835;SDS011;3963;42.658;23.298;2023-03-03T11:38:10;23.47;;;15.43;;
7835;SDS011;3963;42.658;23.298;2023-03-03T11:40:55;24.83;;;17.27;;
7835;SDS011;3963;42.658;23.298;2023-03-03T11:43:28;29.27;;;18.73;;
7835;SDS011;3963;42.658;23.298;2023-03-03T11:45:58;29.77;;;19.53;;
7835;SDS011;3963;42.658;23.298;2023-03-03T11:48:32;30.03;;;18.73;;
7835;SDS011;3963;42.658;23.298;2023-03-03T11:51:07;28.80;;;18.37;;
7835;SDS011;3963;42.658;23.298;2023-03-03T11:53:39;24.27;;;16.77;;
7835;SDS011;3963;42.658;23.298;2023-03-03T11:56:18;29.23;;;17.43;;
7835;SDS011;3963;42.658;23.298;2023-03-03T11:58:50;26.30;;;16.30;;
7835;SDS011;3963;42.658;23.298;2023-03-03T12:01:25;27.40;;;17.93;;
7835;SDS011;3963;42.658;23.298;2023-03-03T12:03:59;30.40;;;18.30;;
7835;SDS011;3963;42.658;23.298;2023-03-03T12:06:32;28.83;;;18.47;;
7835;SDS011;3963;42.658;23.298;2023-03-03T12:09:13;29.60;;;19.97;;
7835;SDS011;3963;42.658;23.298;2023-03-03T12:11:50;33.07;;;19.77;;
7835;SDS011;3963;42.658;23.298;2023-03-03T12:14:25;32.90;;;21.53;;
7835;SDS011;3963;42.658;23.298;2023-03-03T12:17:02;31.60;;;20.53;;
7835;SDS011;3963;42.658;23.298;2023-03-03T12:19:38;34.20;;;21.30;;
7835;SDS011;3963;42.658;23.298;2023-03-03T12:22:20;33.63;;;20.70;;
7835;SDS011;3963;42.658;23.298;2023-03-03T12:25:09;30.50;;;19.77;;
7835;SDS011;3963;42.658;23.298;2023-03-03T12:27:46;29.33;;;19.83;;
7835;SDS011;3963;42.658;23.298;2023-03-03T12:30:25;37.53;;;21.77;;
7835;SDS011;3963;42.658;23.298;2023-03-03T12:33:08;32.03;;;20.40;;
7835;SDS011;3963;42.658;23.298;2023-03-03T12:35:45;30.27;;;18.20;;
7835;SDS011;3963;42.658;23.298;2023-03-03T12:38:22;28.13;;;18.80;;
7835;SDS011;3963;42.658;23.298;2023-03-03T12:40:56;29.10;;;17.57;;
7835;SDS011;3963;42.658;23.298;2023-03-03T12:43:34;26.97;;;18.10;;
7835;SDS011;3963;42.658;23.298;2023-03-03T12:46:12;28.17;;;18.83;;
7835;SDS011;3963;42.658;23.298;2023-03-03T12:48:46;28.87;;;18.90;;
7835;SDS011;3963;42.658;23.298;2023-03-03T12:51:26;27.03;;;17.07;;
7835;SDS011;3963;42.658;23.298;2023-03-03T12:54:16;24.43;;;16.17;;
7835;SDS011;3963;42.658;23.298;2023-03-03T12:56:55;23.43;;;15.17;;
7835;SDS011;3963;42.658;23.298;2023-03-03T12:59:29;21.90;;;15.43;;
7835;SDS011;3963;42.658;23.298;2023-03-03T13:02:14;22.27;;;14.33;;
7835;SDS011;3963;42.658;23.298;2023-03-03T13:04:55;19.97;;;13.57;;
7835;SDS011;3963;42.658;23.298;2023-03-03T13:07:27;21.73;;;14.53;;
7835;SDS011;3963;42.658;23.298;2023-03-03T13:10:08;23.03;;;13.97;;
7835;SDS011;3963;42.658;23.298;2023-03-03T13:12:43;20.30;;;12.37;;
7835;SDS011;3963;42.658;23.298;2023-03-03T13:15:13;18.47;;;12.87;;
7835;SDS011;3963;42.658;23.298;2023-03-03T13:17:48;16.47;;;12.07;;
7835;SDS011;3963;42.658;23.298;2023-03-03T13:20:28;17.00;;;11.97;;
7835;SDS011;3963;42.658;23.298;2023-03-03T13:23:03;16.33;;;10.53;;
7835;SDS011;3963;42.658;23.298;2023-03-03T13:25:38;13.40;;;9.10;;
7835;SDS011;3963;42.658;23.298;2023-03-03T13:28:13;14.13;;;9.73;;
7835;SDS011;3963;42.658;23.298;2023-03-03T13:30:57;11.17;;;8.17;;
7835;SDS011;3963;42.658;23.298;2023-03-03T13:33:29;11.90;;;8.37;;
7835;SDS011;3963;42.658;23.298;2023-03-03T13:36:00;11.23;;;8.63;;
7835;SDS011;3963;42.658;23.298;2023-03-03T13:38:31;13.13;;;8.97;;
7835;SDS011;3963;42.658;23.298;2023-03-03T13:41:08;10.77;;;8.63;;
7835;SDS011;3963;42.658;23.298;2023-03-03T13:43:43;13.60;;;9.73;;
7835;SDS011;3963;42.658;23.298;2023-03-03T13:46:15;13.17;;;10.10;;
7835;SDS011;3963;42.658;23.298;2023-03-03T13:48:53;15.17;;;9.00;;
7835;SDS011;3963;42.658;23.298;2023-03-03T13:51:31;14.47;;;9.10;;
7835;SDS011;3963;42.658;23.298;2023-03-03T13:54:08;14.70;;;9.90;;
7835;SDS011;3963;42.658;23.298;2023-03-03T13:56:52;15.53;;;10.37;;
7835;SDS011;3963;42.658;23.298;2023-03-03T13:59:35;15.60;;;9.83;;
7835;SDS011;3963;42.658;23.298;2023-03-03T14:02:18;13.83;;;10.27;;
7835;SDS011;3963;42.658;23.298;2023-03-03T14:05:01;17.07;;;11.60;;
7835;SDS011;3963;42.658;23.298;2023-03-03T14:07:31;16.17;;;11.40;;
7835;SDS011;3963;42.658;23.298;2023-03-03T14:10:05;15.13;;;10.43;;
7835;SDS011;3963;42.658;23.298;2023-03-03T14:12:39;14.67;;;11.17;;
7835;SDS011;3963;42.658;23.298;2023-03-03T14:15:14;14.70;;;11.17;;
7835;SDS011;3963;42.658;23.298;2023-03-03T14:20:45;18.90;;;13.33;;
7835;SDS011;3963;42.658;23.298;2023-03-03T14:23:17;25.53;;;16.67;;
7835;SDS011;3963;42.658;23.298;2023-03-03T14:25:49;25.70;;;17.80;;
7835;SDS011;3963;42.658;23.298;2023-03-03T14:28:21;26.23;;;18.93;;
7835;SDS011;3963;42.658;23.298;2023-03-03T14:30:49;27.87;;;19.37;;
7835;SDS011;3963;42.658;23.298;2023-03-03T14:33:26;21.87;;;15.77;;
7835;SDS011;3963;42.658;23.298;2023-03-03T14:36:02;21.60;;;15.90;;
7835;SDS011;3963;42.658;23.298;2023-03-03T14:38:42;17.53;;;13.40;;
7835;SDS011;3963;42.658;23.298;2023-03-03T14:41:12;16.43;;;12.67;;
7835;SDS011;3963;42.658;23.298;2023-03-03T14:43:54;22.73;;;16.87;;
7835;SDS011;3963;42.658;23.298;2023-03-03T14:46:29;26.80;;;18.83;;
7835;SDS011;3963;42.658;23.298;2023-03-03T14:48:59;18.33;;;12.60;;
7835;SDS011;3963;42.658;23.298;2023-03-03T14:51:27;18.93;;;14.60;;
7835;SDS011;3963;42.658;23.298;2023-03-03T14:53:58;14.90;;;11.23;;
7835;SDS011;3963;42.658;23.298;2023-03-03T14:56:25;16.70;;;11.67;;
7835;SDS011;3963;42.658;23.298;2023-03-03T15:01:43;13.60;;;10.03;;
7835;SDS011;3963;42.658;23.298;2023-03-03T15:04:22;15.40;;;10.47;;
7835;SDS011;3963;42.658;23.298;2023-03-03T15:06:51;13.80;;;8.97;;
7835;SDS011;3963;42.658;23.298;2023-03-03T15:09:32;10.93;;;8.53;;
7835;SDS011;3963;42.658;23.298;2023-03-03T15:12:16;12.53;;;9.17;;
7835;SDS011;3963;42.658;23.298;2023-03-03T15:14:46;14.30;;;10.07;;
7835;SDS011;3963;42.658;23.298;2023-03-03T15:17:16;14.40;;;10.53;;
7835;SDS011;3963;42.658;23.298;2023-03-03T15:19:54;15.83;;;11.23;;
7835;SDS011;3963;42.658;23.298;2023-03-03T15:22:37;16.67;;;11.60;;
7835;SDS011;3963;42.658;23.298;2023-03-03T15:25:23;15.63;;;11.83;;
7835;SDS011;3963;42.658;23.298;2023-03-03T15:27:59;16.00;;;12.87;;
7835;SDS011;3963;42.658;23.298;2023-03-03T15:30:38;16.27;;;11.83;;